createdAt,value
2022-11-08T00:02:07.087Z,14.62
2022-11-08T00:04:35.421Z,14.48
2022-11-08T00:07:20.708Z,14.41
2022-11-08T00:10:05.762Z,13.84
2022-11-08T00:12:50.449Z,14.20
2022-11-08T00:15:19.264Z,13.79
2022-11-08T00:17:46.687Z,14.40
2022-11-08T00:20:14.106Z,14.24
2022-11-08T00:22:41.537Z,14.08
2022-11-08T00:25:09.534Z,14.42
2022-11-08T00:27:37.091Z,13.65
2022-11-08T00:30:05.445Z,13.66
2022-11-08T00:32:34.142Z,13.61
2022-11-08T00:35:01.564Z,13.93
2022-11-08T00:37:28.954Z,14.12
2022-11-08T00:39:56.350Z,14.19
2022-11-08T00:42:23.761Z,14.34
2022-11-08T00:44:51.160Z,14.41
2022-11-08T00:47:18.571Z,13.57
2022-11-08T00:49:47.331Z,13.64
2022-11-08T00:52:14.708Z,13.79
2022-11-08T00:54:42.141Z,13.92
2022-11-08T00:57:09.522Z,13.95
2022-11-08T00:59:36.949Z,14.10
2022-11-08T01:02:04.437Z,13.17
2022-11-08T01:04:31.971Z,13.49
2022-11-08T01:07:00.795Z,14.03
2022-11-08T01:09:28.248Z,14.18
2022-11-08T01:11:55.639Z,13.54
2022-11-08T01:14:23.035Z,14.20
2022-11-08T01:16:50.464Z,14.08
2022-11-08T01:19:17.847Z,13.58
2022-11-08T01:21:45.330Z,13.96
2022-11-08T01:24:14.060Z,13.71
2022-11-08T01:26:41.579Z,14.10
2022-11-08T01:29:09.004Z,14.19
2022-11-08T01:31:36.437Z,13.47
2022-11-08T01:34:03.839Z,13.88
2022-11-08T01:36:31.428Z,13.31
2022-11-08T01:38:58.916Z,13.34
2022-11-08T01:41:28.126Z,13.43
2022-11-08T01:43:57.205Z,12.95
2022-11-08T01:46:33.752Z,13.23
2022-11-08T01:49:27.325Z,13.05
2022-11-08T01:52:03.489Z,12.76
2022-11-08T01:54:35.109Z,13.24
2022-11-08T01:57:07.824Z,13.59
2022-11-08T01:59:40.771Z,13.96
2022-11-08T02:02:09.534Z,13.93
2022-11-08T02:04:37.579Z,13.45
2022-11-08T02:07:07.543Z,13.87
2022-11-08T02:09:38.474Z,14.10
2022-11-08T02:12:08.707Z,13.82
2022-11-08T02:14:37.651Z,13.97
2022-11-08T02:17:06.175Z,13.45
2022-11-08T02:19:40.838Z,13.64
2022-11-08T02:22:18.061Z,13.52
2022-11-08T02:24:47.495Z,13.73
2022-11-08T02:27:15.774Z,13.25
2022-11-08T02:29:43.639Z,13.13
2022-11-08T02:32:12.734Z,13.56
2022-11-08T02:34:45.067Z,13.65
2022-11-08T02:37:15.137Z,13.61
2022-11-08T02:39:43.074Z,14.10
2022-11-08T02:42:20.547Z,14.33
2022-11-08T02:44:48.470Z,13.93
2022-11-08T02:47:16.693Z,14.10
2022-11-08T02:49:44.501Z,13.44
2022-11-08T02:52:12.286Z,13.22
2022-11-08T02:54:39.843Z,12.91
2022-11-08T02:57:07.391Z,13.17
2022-11-08T02:59:36.356Z,13.17
2022-11-08T03:02:03.882Z,12.53
2022-11-08T03:04:31.903Z,13.24
2022-11-08T03:06:59.546Z,13.13
2022-11-08T03:09:27.376Z,13.50
2022-11-08T03:11:54.973Z,13.46
2022-11-08T03:14:22.926Z,12.90
2022-11-08T03:16:51.698Z,13.67
2022-11-08T03:19:19.203Z,13.62
2022-11-08T03:21:46.697Z,13.92
2022-11-08T03:24:14.460Z,14.18
2022-11-08T03:26:42.149Z,14.04
2022-11-08T03:29:09.671Z,14.19
2022-11-08T03:31:37.243Z,14.16
2022-11-08T03:34:06.140Z,14.38
2022-11-08T03:36:33.726Z,13.99
2022-11-08T03:39:01.243Z,14.29
2022-11-08T03:41:28.841Z,14.39
2022-11-08T03:43:56.493Z,14.28
2022-11-08T03:46:24.120Z,13.75
2022-11-08T03:48:51.734Z,13.70
2022-11-08T03:51:20.688Z,13.22
2022-11-08T03:53:48.269Z,13.11
2022-11-08T03:56:18.016Z,13.62
2022-11-08T03:58:45.638Z,13.42
2022-11-08T04:01:13.224Z,13.23
2022-11-08T04:03:40.836Z,13.19
2022-11-08T04:06:09.315Z,13.66
2022-11-08T04:08:38.118Z,13.58
2022-11-08T04:11:19.931Z,13.75
2022-11-08T04:14:05.215Z,13.75
2022-11-08T04:16:33.452Z,13.74
2022-11-08T04:19:18.831Z,13.78
2022-11-08T04:21:48.920Z,13.61
2022-11-08T04:24:18.047Z,13.68
2022-11-08T04:26:45.531Z,13.32
2022-11-08T04:29:13.216Z,13.26
2022-11-08T04:31:41.359Z,13.31
2022-11-08T04:34:08.997Z,13.43
2022-11-08T04:36:36.742Z,13.38
2022-11-08T04:39:05.020Z,13.46
2022-11-08T04:41:33.897Z,13.45
2022-11-08T04:44:01.446Z,12.93
2022-11-08T04:46:30.287Z,12.63
2022-11-08T04:49:00.775Z,13.01
2022-11-08T04:51:30.067Z,12.88
2022-11-08T04:53:59.238Z,12.86
2022-11-08T04:56:28.233Z,12.71
2022-11-08T04:58:58.864Z,12.76
2022-11-08T05:01:28.588Z,13.10
2022-11-08T05:03:57.360Z,13.33
2022-11-08T05:06:26.338Z,13.19
2022-11-08T05:08:55.890Z,12.80
2022-11-08T05:11:25.229Z,13.02
2022-11-08T05:13:53.387Z,12.96
2022-11-08T05:16:24.280Z,12.89
2022-11-08T05:18:52.659Z,12.27
2022-11-08T05:21:39.670Z,12.62
2022-11-08T05:24:09.689Z,12.48
2022-11-08T05:26:39.117Z,13.14
2022-11-08T05:29:07.094Z,13.06
2022-11-08T05:31:36.046Z,12.54
2022-11-08T05:34:03.821Z,13.20
2022-11-08T05:36:31.283Z,12.84
2022-11-08T05:38:58.799Z,12.78
2022-11-08T05:41:27.536Z,12.34
2022-11-08T05:43:56.231Z,12.82
2022-11-08T05:46:24.426Z,11.98
2022-11-08T05:48:53.656Z,11.98
2022-11-08T05:51:21.892Z,12.53
2022-11-08T05:53:49.656Z,12.29
2022-11-08T05:56:18.230Z,12.28
2022-11-08T05:58:46.010Z,12.88
2022-11-08T06:01:15.414Z,12.99
2022-11-08T06:03:43.467Z,12.83
2022-11-08T06:06:13.489Z,13.16
2022-11-08T06:08:44.069Z,13.00
2022-11-08T06:11:17.284Z,12.88
2022-11-08T06:13:45.182Z,12.41
2022-11-08T06:16:14.695Z,12.40
2022-11-08T06:18:42.900Z,13.02
2022-11-08T06:21:14.929Z,12.63
2022-11-08T06:23:43.219Z,12.88
2022-11-08T06:26:11.196Z,12.77
2022-11-08T06:28:39.157Z,13.03
2022-11-08T06:31:06.963Z,12.50
2022-11-08T06:33:34.692Z,12.70
2022-11-08T06:36:02.545Z,12.81
2022-11-08T06:38:31.942Z,13.02
2022-11-08T06:41:00.617Z,12.37
2022-11-08T06:43:28.482Z,11.54
2022-11-08T06:45:56.253Z,11.93
2022-11-08T06:48:23.680Z,12.60
2022-11-08T06:50:51.435Z,12.72
2022-11-08T06:53:19.098Z,12.72
2022-11-08T06:55:48.372Z,12.98
2022-11-08T06:58:15.762Z,13.01
2022-11-08T07:00:43.251Z,13.09
2022-11-08T07:03:11.033Z,12.90
2022-11-08T07:05:38.685Z,12.71
2022-11-08T07:08:07.019Z,12.80
2022-11-08T07:10:35.043Z,12.85
2022-11-08T07:13:06.669Z,12.99
2022-11-08T07:15:35.796Z,13.27
2022-11-08T07:18:04.754Z,12.36
2022-11-08T07:20:32.563Z,12.57
2022-11-08T07:23:00.510Z,12.63
2022-11-08T07:25:29.584Z,12.36
2022-11-08T07:27:57.867Z,12.98
2022-11-08T07:30:27.857Z,13.21
2022-11-08T07:32:56.411Z,13.09
2022-11-08T07:35:25.283Z,13.34
2022-11-08T07:37:52.927Z,13.30
2022-11-08T07:40:20.966Z,12.96
2022-11-08T07:45:37.645Z,13.01
2022-11-08T07:48:11.651Z,13.55
2022-11-08T07:50:40.647Z,13.53
2022-11-08T07:53:13.563Z,13.55
2022-11-08T07:55:41.789Z,13.33
2022-11-08T07:58:11.433Z,13.64
2022-11-08T08:00:42.063Z,13.89
2022-11-08T08:03:12.117Z,13.60
2022-11-08T08:05:41.566Z,13.07
2022-11-08T08:08:09.758Z,12.95
2022-11-08T08:10:38.718Z,12.65
2022-11-08T08:13:09.762Z,13.52
2022-11-08T08:15:37.319Z,13.43
2022-11-08T08:18:08.289Z,13.31
2022-11-08T08:20:37.897Z,13.51
2022-11-08T08:23:13.496Z,12.93
2022-11-08T08:25:41.233Z,13.46
2022-11-08T08:28:09.125Z,13.51
2022-11-08T08:30:40.842Z,13.67
2022-11-08T08:33:29.842Z,14.07
2022-11-08T08:36:01.300Z,13.99
2022-11-08T08:38:29.570Z,13.62
2022-11-08T08:40:57.300Z,14.12
2022-11-08T08:43:25.122Z,14.32
2022-11-08T08:45:52.744Z,14.30
2022-11-08T08:48:21.959Z,14.55
2022-11-08T08:50:49.541Z,14.43
2022-11-08T08:53:17.596Z,14.11
2022-11-08T08:55:45.362Z,14.68
2022-11-08T08:58:17.887Z,14.34
2022-11-08T09:03:44.288Z,14.72
2022-11-08T09:06:12.055Z,14.69
2022-11-08T09:08:39.728Z,14.54
2022-11-08T09:11:07.256Z,14.55
2022-11-08T09:13:34.816Z,14.80
2022-11-08T09:16:03.775Z,15.05
2022-11-08T09:18:32.363Z,14.98
2022-11-08T09:21:04.344Z,14.91
2022-11-08T09:23:31.974Z,14.77
2022-11-08T09:26:00.175Z,14.94
2022-11-08T09:28:31.316Z,14.94
2022-11-08T09:31:01.703Z,15.13
2022-11-08T09:33:29.608Z,15.22
2022-11-08T09:35:57.192Z,15.50
2022-11-08T09:38:26.201Z,15.50
2022-11-08T09:41:07.174Z,15.35
2022-11-08T09:43:47.949Z,15.59
2022-11-08T09:46:24.399Z,15.63
2022-11-08T09:48:53.497Z,15.44
2022-11-08T09:51:24.101Z,15.49
2022-11-08T09:53:57.232Z,15.62
2022-11-08T09:56:28.538Z,15.80
2022-11-08T09:59:02.271Z,15.90
2022-11-08T10:01:33.643Z,16.10
2022-11-08T10:04:06.324Z,15.56
2022-11-08T10:06:50.812Z,16.05
2022-11-08T10:09:30.551Z,16.04
2022-11-08T10:12:12.387Z,16.38
2022-11-08T10:14:54.558Z,16.13
2022-11-08T10:17:39.154Z,16.26
2022-11-08T10:20:21.431Z,16.65
2022-11-08T10:22:55.474Z,16.72
2022-11-08T10:25:27.922Z,16.50
2022-11-08T10:28:00.880Z,16.74
2022-11-08T10:30:34.166Z,16.80
2022-11-08T10:33:01.732Z,17.03
2022-11-08T10:35:36.938Z,17.02
2022-11-08T10:38:11.239Z,17.02
2022-11-08T10:40:43.871Z,16.75
2022-11-08T10:43:15.885Z,16.98
2022-11-08T10:45:43.392Z,17.10
2022-11-08T10:48:12.864Z,17.26
2022-11-08T10:50:45.013Z,17.42
2022-11-08T10:53:21.517Z,17.17
2022-11-08T10:55:52.365Z,17.84
2022-11-08T10:58:31.863Z,17.39
2022-11-08T11:01:05.310Z,17.27
2022-11-08T11:03:33.140Z,17.57
2022-11-08T11:06:01.976Z,17.69
2022-11-08T11:08:29.768Z,17.60
2022-11-08T11:11:22.115Z,17.49
2022-11-08T11:14:06.773Z,17.55
2022-11-08T11:16:35.079Z,17.24
2022-11-08T11:19:03.872Z,17.25
2022-11-08T11:21:37.318Z,16.91
2022-11-08T11:24:13.416Z,17.05
2022-11-08T11:26:48.899Z,17.05
2022-11-08T11:29:19.749Z,17.08
2022-11-08T11:31:49.500Z,17.04
2022-11-08T11:34:35.444Z,16.54
2022-11-08T11:37:11.796Z,17.01
2022-11-08T11:39:45.960Z,16.88
2022-11-08T11:42:44.329Z,16.83
2022-11-08T11:45:17.050Z,16.80
2022-11-08T11:47:47.970Z,16.72
2022-11-08T11:50:40.410Z,17.34
2022-11-08T11:53:13.815Z,17.33
2022-11-08T11:55:51.703Z,17.32
2022-11-08T11:58:34.113Z,17.17
2022-11-08T12:01:14.009Z,17.63
2022-11-08T12:04:01.293Z,17.74
2022-11-08T12:06:39.512Z,17.11
2022-11-08T12:09:28.911Z,17.61
2022-11-08T12:12:06.875Z,17.29
2022-11-08T12:14:55.155Z,17.17
2022-11-08T12:17:44.327Z,17.50
2022-11-08T12:20:27.129Z,17.50
2022-11-08T12:23:07.381Z,17.41
2022-11-08T12:25:41.832Z,17.39
2022-11-08T12:28:29.448Z,17.66
2022-11-08T12:31:09.504Z,17.29
2022-11-08T12:33:47.003Z,17.71
2022-11-08T12:36:25.915Z,17.54
2022-11-08T12:39:05.521Z,17.61
2022-11-08T12:41:39.016Z,17.60
2022-11-08T12:44:24.970Z,18.03
2022-11-08T12:47:09.606Z,17.62
2022-11-08T12:49:47.072Z,17.60
2022-11-08T12:52:25.146Z,17.65
2022-11-08T12:54:55.654Z,17.85
2022-11-08T12:57:28.109Z,17.15
2022-11-08T13:00:04.985Z,17.25
2022-11-08T13:02:38.989Z,17.67
2022-11-08T13:05:13.712Z,17.77
2022-11-08T13:07:49.197Z,17.63
2022-11-08T13:10:34.998Z,17.50
2022-11-08T13:13:21.748Z,16.87
2022-11-08T13:16:09.812Z,17.55
2022-11-08T13:18:45.726Z,17.81
2022-11-08T13:21:34.174Z,17.69
2022-11-08T13:24:49.547Z,17.52
2022-11-08T13:27:32.660Z,17.25
2022-11-08T13:30:06.151Z,17.49
2022-11-08T13:32:52.700Z,17.42
2022-11-08T13:35:31.643Z,17.60
2022-11-08T13:38:15.135Z,17.52
2022-11-08T13:40:45.594Z,17.66
2022-11-08T13:43:26.298Z,17.45
2022-11-08T13:45:54.495Z,17.75
2022-11-08T13:48:37.130Z,17.46
2022-11-08T13:51:27.452Z,17.41
2022-11-08T13:54:00.955Z,17.42
2022-11-08T13:56:47.946Z,17.84
2022-11-08T13:59:49.225Z,17.53
2022-11-08T14:02:41.509Z,17.83
2022-11-08T14:05:23.334Z,17.57
2022-11-08T14:08:06.575Z,17.60
2022-11-08T14:10:54.793Z,17.72
2022-11-08T14:13:31.390Z,17.16
2022-11-08T14:16:04.674Z,17.54
2022-11-08T14:18:35.085Z,16.86
2022-11-08T14:21:05.782Z,17.24
2022-11-08T14:23:38.399Z,17.52
2022-11-08T14:26:11.903Z,17.16
2022-11-08T14:28:41.707Z,17.50
2022-11-08T14:31:24.760Z,17.48
2022-11-08T14:33:52.363Z,17.40
2022-11-08T14:36:21.806Z,17.27
2022-11-08T14:38:53.602Z,17.38
2022-11-08T14:41:25.838Z,17.52
2022-11-08T14:43:55.050Z,17.28
2022-11-08T14:46:29.865Z,17.44
2022-11-08T14:48:58.428Z,17.39
2022-11-08T14:51:27.487Z,17.32
2022-11-08T14:53:56.887Z,17.00
2022-11-08T14:56:26.151Z,16.58
2022-11-08T14:58:55.669Z,17.12
2022-11-08T15:01:25.506Z,17.08
2022-11-08T15:03:56.485Z,16.87
2022-11-08T15:06:31.930Z,16.84
2022-11-08T15:09:02.360Z,16.52
2022-11-08T15:11:32.864Z,16.73
2022-11-08T15:14:03.127Z,16.89
2022-11-08T15:16:40.103Z,16.80
2022-11-08T15:19:37.191Z,16.62
2022-11-08T15:22:24.285Z,15.86
2022-11-08T15:25:02.968Z,16.58
2022-11-08T15:27:30.633Z,16.48
2022-11-08T15:30:02.781Z,16.33
2022-11-08T15:32:37.977Z,16.47
2022-11-08T15:35:07.290Z,16.70
2022-11-08T15:37:39.458Z,16.39
2022-11-08T15:40:20.320Z,16.44
2022-11-08T15:42:50.395Z,16.58
2022-11-08T15:45:25.741Z,16.69
2022-11-08T15:47:55.138Z,16.10
2022-11-08T15:50:24.872Z,16.49
2022-11-08T15:52:54.115Z,16.65
2022-11-08T15:55:25.270Z,16.28
2022-11-08T15:57:53.192Z,16.59
2022-11-08T16:00:24.162Z,16.49
2022-11-08T16:02:52.594Z,16.69
2022-11-08T16:05:22.923Z,16.60
2022-11-08T16:07:51.334Z,16.44
2022-11-08T16:10:22.325Z,16.27
2022-11-08T16:12:51.145Z,16.20
2022-11-08T16:15:21.626Z,16.24
2022-11-08T16:17:49.227Z,16.36
2022-11-08T16:20:25.516Z,15.82
2022-11-08T16:22:52.938Z,16.39
2022-11-08T16:25:21.028Z,16.42
2022-11-08T16:27:57.183Z,16.65
2022-11-08T16:30:25.305Z,16.61
2022-11-08T16:32:53.048Z,16.56
2022-11-08T16:35:20.672Z,16.73
2022-11-08T16:37:48.877Z,16.68
2022-11-08T16:40:18.465Z,16.66
2022-11-08T16:42:46.890Z,16.69
2022-11-08T16:45:17.158Z,15.77
2022-11-08T16:47:46.776Z,16.34
2022-11-08T16:50:17.281Z,16.54
2022-11-08T16:52:45.408Z,16.44
2022-11-08T16:55:17.554Z,16.28
2022-11-08T16:57:46.032Z,16.12
2022-11-08T17:00:17.740Z,15.97
2022-11-08T17:02:48.737Z,16.26
2022-11-08T17:05:18.891Z,15.98
2022-11-08T17:07:46.442Z,16.35
2022-11-08T17:10:15.974Z,16.40
2022-11-08T17:12:43.607Z,16.42
2022-11-08T17:15:14.145Z,16.39
2022-11-08T17:17:43.898Z,16.16
2022-11-08T17:20:13.920Z,16.36
2022-11-08T17:22:41.711Z,16.40
2022-11-08T17:25:11.587Z,16.35
2022-11-08T17:27:39.312Z,15.83
2022-11-08T17:30:08.374Z,16.26
2022-11-08T17:32:36.691Z,16.29
2022-11-08T17:35:07.757Z,16.36
2022-11-08T17:37:35.701Z,16.05
2022-11-08T17:40:05.378Z,16.27
2022-11-08T17:42:35.660Z,16.14
2022-11-08T17:45:06.874Z,16.17
2022-11-08T17:47:34.411Z,16.45
2022-11-08T17:50:01.943Z,16.30
2022-11-08T17:52:30.634Z,16.20
2022-11-08T17:54:58.580Z,16.03
2022-11-08T17:57:26.855Z,15.96
2022-11-08T17:59:54.365Z,15.66
2022-11-08T18:02:21.885Z,15.93
2022-11-08T18:04:49.404Z,16.24
2022-11-08T18:07:16.890Z,16.21
2022-11-08T18:09:45.667Z,15.97
2022-11-08T18:12:13.171Z,15.92
2022-11-08T18:14:40.630Z,15.87
2022-11-08T18:17:08.029Z,15.91
2022-11-08T18:19:35.579Z,15.22
2022-11-08T18:22:04.640Z,15.58
2022-11-08T18:24:32.308Z,15.84
2022-11-08T18:27:01.218Z,16.16
2022-11-08T18:29:28.631Z,15.91
2022-11-08T18:31:56.110Z,16.00
2022-11-08T18:34:23.514Z,16.06
2022-11-08T18:36:50.965Z,15.79
2022-11-08T18:39:19.882Z,16.01
2022-11-08T18:41:47.713Z,15.83
2022-11-08T18:44:16.436Z,15.77
2022-11-08T18:46:44.060Z,15.46
2022-11-08T18:49:11.651Z,15.78
2022-11-08T18:51:39.108Z,15.73
2022-11-08T18:54:06.647Z,15.82
2022-11-08T18:56:34.191Z,15.92
2022-11-08T18:59:01.598Z,15.73
2022-11-08T19:01:30.530Z,15.87
2022-11-08T19:03:58.002Z,15.90
2022-11-08T19:06:25.463Z,15.98
2022-11-08T19:08:52.927Z,15.99
2022-11-08T19:11:22.877Z,15.93
2022-11-08T19:13:50.424Z,15.76
2022-11-08T19:16:20.277Z,15.83
2022-11-08T19:18:50.251Z,15.73
2022-11-08T19:21:19.384Z,15.86
2022-11-08T19:23:47.994Z,15.32
2022-11-08T19:26:17.481Z,15.80
2022-11-08T19:28:46.487Z,15.80
2022-11-08T19:31:14.748Z,15.68
2022-11-08T19:33:42.617Z,15.47
2022-11-08T19:36:14.402Z,15.75
2022-11-08T19:38:42.298Z,15.76
2022-11-08T19:41:11.350Z,15.86
2022-11-08T19:43:40.643Z,15.88
2022-11-08T19:46:10.198Z,16.03
2022-11-08T19:48:41.316Z,15.97
2022-11-08T19:51:16.262Z,15.58
2022-11-08T19:53:44.591Z,15.04
2022-11-08T19:56:14.956Z,15.31
2022-11-08T19:58:42.760Z,15.43
2022-11-08T20:01:13.021Z,15.88
2022-11-08T20:03:40.813Z,15.69
2022-11-08T20:06:09.747Z,14.68
2022-11-08T20:08:38.890Z,15.29
2022-11-08T20:11:11.757Z,15.50
2022-11-08T20:13:39.823Z,14.89
2022-11-08T20:16:12.410Z,14.60
2022-11-08T20:18:39.893Z,14.96
2022-11-08T20:21:08.257Z,14.86
2022-11-08T20:23:36.840Z,15.40
2022-11-08T20:26:08.944Z,15.78
2022-11-08T20:28:41.620Z,15.71
2022-11-08T20:31:12.151Z,15.38
2022-11-08T20:33:40.571Z,15.58
2022-11-08T20:36:10.926Z,15.62
2022-11-08T20:38:38.783Z,15.76
2022-11-08T20:41:11.525Z,14.42
2022-11-08T20:46:26.506Z,14.33
2022-11-08T20:49:00.133Z,14.75
2022-11-08T20:51:28.708Z,14.99
2022-11-08T20:53:57.225Z,14.89
2022-11-08T20:56:26.733Z,15.30
2022-11-08T20:58:54.681Z,15.40
2022-11-08T21:01:23.470Z,15.52
2022-11-08T21:03:52.407Z,15.46
2022-11-08T21:06:22.957Z,14.91
2022-11-08T21:09:00.956Z,15.28
2022-11-08T21:11:34.259Z,15.38
2022-11-08T21:14:02.265Z,15.44
2022-11-08T21:16:35.121Z,15.51
2022-11-08T21:19:06.250Z,15.04
2022-11-08T21:21:34.322Z,14.82
2022-11-08T21:24:01.827Z,15.40
2022-11-08T21:26:29.392Z,15.59
2022-11-08T21:28:58.199Z,15.15
2022-11-08T21:31:25.727Z,15.25
2022-11-08T21:33:53.329Z,15.50
2022-11-08T21:36:20.951Z,15.13
2022-11-08T21:38:48.460Z,15.50
2022-11-08T21:41:16.027Z,15.71
2022-11-08T21:43:45.161Z,15.66
2022-11-08T21:46:16.011Z,15.55
2022-11-08T21:48:43.757Z,15.66
2022-11-08T21:51:11.296Z,15.63
2022-11-08T21:53:47.907Z,14.60
2022-11-08T21:56:20.315Z,15.05
2022-11-08T21:58:47.912Z,15.68
2022-11-08T22:01:16.958Z,15.69
2022-11-08T22:03:44.634Z,15.49
2022-11-08T22:06:12.164Z,15.70
2022-11-08T22:08:39.671Z,15.96
2022-11-08T22:11:07.179Z,15.98
2022-11-08T22:13:34.869Z,15.94
2022-11-08T22:16:02.421Z,16.19
2022-11-08T22:18:50.546Z,16.18
2022-11-08T22:21:36.282Z,16.16
2022-11-08T22:24:03.832Z,15.46
2022-11-08T22:26:31.538Z,16.02
2022-11-08T22:28:59.095Z,15.33
2022-11-08T22:31:26.860Z,15.79
2022-11-08T22:33:55.892Z,15.66
2022-11-08T22:36:23.483Z,16.04
2022-11-08T22:38:51.079Z,16.23
2022-11-08T22:41:20.090Z,16.44
2022-11-08T22:43:48.504Z,16.36
2022-11-08T22:46:17.067Z,15.88
2022-11-08T22:48:44.881Z,15.95
2022-11-08T22:51:14.067Z,16.06
2022-11-08T22:53:42.328Z,16.25
2022-11-08T22:56:11.955Z,16.20
2022-11-08T22:58:40.464Z,15.94
2022-11-08T23:01:08.258Z,16.08
2022-11-08T23:03:35.886Z,16.05
2022-11-08T23:06:03.432Z,16.07
2022-11-08T23:08:32.423Z,16.19
2022-11-08T23:11:18.223Z,16.24
2022-11-08T23:14:03.612Z,15.82
2022-11-08T23:16:35.226Z,15.47
2022-11-08T23:19:22.191Z,14.73
2022-11-08T23:22:07.440Z,15.54
2022-11-08T23:24:36.468Z,15.39
2022-11-08T23:27:22.023Z,15.77
2022-11-08T23:30:07.328Z,15.38
2022-11-08T23:32:35.385Z,14.55
2022-11-08T23:35:03.448Z,15.15
2022-11-08T23:37:31.004Z,15.68
2022-11-08T23:40:17.613Z,14.93
2022-11-08T23:43:03.101Z,15.59
2022-11-08T23:45:30.533Z,15.23
2022-11-08T23:47:57.939Z,15.54
2022-11-08T23:50:25.337Z,15.13
2022-11-08T23:52:52.991Z,15.30
2022-11-08T23:55:21.696Z,15.62
2022-11-08T23:57:49.092Z,15.24
